Time;durP1;ratioP1;P1;durP2;ratioP2;P2;SDS_P1;SDS_P2;PMS_P1;PMS_P2;Temp;Humidity;BMP_temperature;BMP_pressure;BME280_temperature;BME280_humidity;BME280_pressure;Samples;Min_cycle;Max_cycle;Signal;HPM_P1;HPM_P2
2023/12/06 00:02:20;;;;;;;110.00;45.50;;;;;;;-2.74;91.81;99987.97;106861;1244;2787263;-84
2023/12/06 00:06:17;;;;;;;95.50;40.30;;;;;;;-2.89;91.83;99987.55;108839;1264;25066;-85
2023/12/06 00:10:12;;;;;;;83.80;34.90;;;;;;;-2.97;91.73;99982.11;108841;1267;26754;-85
2023/12/06 00:14:04;;;;;;;84.60;34.70;;;;;;;-3.07;91.66;99992.52;108882;1268;24239;-86
2023/12/06 00:17:56;;;;;;;81.10;35.40;;;;;;;-3.12;91.83;99989.88;108825;1268;22701;-85
2023/12/06 00:21:11;;;;;;;84.90;36.10;;;;;;;-3.12;92.43;99991.04;109047;1267;22596;-84
2023/12/06 00:25:08;;;;;;;102.70;42.20;;;;;;;-3.12;92.30;99987.91;108926;1256;23131;-84
2023/12/06 00:29:01;;;;;;;98.80;42.00;;;;;;;-3.14;92.62;99987.91;108760;1267;24248;-85
2023/12/06 00:32:14;;;;;;;101.80;44.00;;;;;;;-3.14;92.81;99987.59;108863;1267;25474;-84
2023/12/06 00:36:29;;;;;;;113.40;46.50;;;;;;;-3.16;92.36;99991.66;108783;1260;24371;-85
2023/12/06 00:40:21;;;;;;;109.60;46.10;;;;;;;-3.16;92.88;99985.11;108819;1268;22610;-86
2023/12/06 00:43:53;;;;;;;109.50;47.40;;;;;;;-3.13;92.85;99984.57;108858;1267;23143;-85
2023/12/06 00:47:07;;;;;;;113.90;48.10;;;;;;;-3.14;92.50;99989.17;108940;1265;25375;-85
2023/12/06 00:50:21;;;;;;;123.00;46.80;;;;;;;-3.19;92.28;99994.48;108989;1267;25489;-85
2023/12/06 00:53:33;;;;;;;119.40;47.60;;;;;;;-3.22;92.27;99993.40;108952;1265;22687;-85
2023/12/06 00:57:09;;;;;;;119.30;50.90;;;;;;;-3.22;92.41;99996.66;108895;1268;25535;-85
2023/12/06 01:00:42;;;;;;;125.80;51.20;;;;;;;-3.25;92.29;99997.93;108709;1268;24317;-86
2023/12/06 01:04:39;;;;;;;107.00;44.60;;;;;;;-3.28;92.17;99997.86;111451;1266;22359;-85
2023/12/06 01:08:31;;;;;;;117.60;46.90;;;;;;;-3.34;91.91;100000.34;111426;1268;22678;-87
2023/12/06 01:12:04;;;;;;;112.50;45.10;;;;;;;-3.36;92.14;100000.27;111286;1268;22103;-86
2023/12/06 01:15:18;;;;;;;108.70;46.10;;;;;;;-3.38;92.16;99999.50;111513;1253;22974;-86
2023/12/06 01:19:31;;;;;;;133.40;55.50;;;;;;;-3.35;92.60;99999.34;111453;1268;22230;-86
2023/12/06 01:22:42;;;;;;;123.40;53.90;;;;;;;-3.36;92.54;99997.47;111458;1266;22136;-87
2023/12/06 01:25:54;;;;;;;109.30;47.70;;;;;;;-3.35;92.84;99997.85;111374;1266;22108;-87
2023/12/06 01:29:48;;;;;;;107.20;44.30;;;;;;;-3.37;92.84;99990.60;111471;1266;22159;-86
2023/12/06 01:33:40;;;;;;;109.10;43.20;;;;;;;-3.42;92.53;99986.63;111488;1268;22161;-87
2023/12/06 01:37:13;;;;;;;94.40;42.40;;;;;;;-3.48;92.57;99986.87;111486;1257;22431;-87
2023/12/06 01:40:46;;;;;;;94.40;40.30;;;;;;;-3.50;93.16;99986.25;111491;1260;22990;-87
2023/12/06 01:44:19;;;;;;;99.50;39.60;;;;;;;-3.49;93.29;99985.78;111474;1264;22146;-85
2023/12/06 01:47:52;;;;;;;103.00;42.20;;;;;;;-3.47;93.44;99983.83;111487;1260;23504;-85
2023/12/06 01:51:06;;;;;;;98.80;40.30;;;;;;;-3.46;93.29;99978.84;111467;1267;22190;-85
2023/12/06 01:53:59;;;;;;;97.70;39.00;;;;;;;-3.44;93.58;99980.16;111442;1268;22935;-86
2023/12/06 01:57:56;;;;;;;98.80;39.40;;;;;;;-3.41;93.62;99980.39;111464;1268;22142;-86
2023/12/06 02:01:10;;;;;;;98.60;40.80;;;;;;;-3.40;93.46;99981.33;111474;1268;22270;-86
2023/12/06 02:04:23;;;;;;;100.80;42.10;;;;;;;-3.37;93.53;99984.83;111277;1268;22240;-85
2023/12/06 02:07:35;;;;;;;99.10;39.60;;;;;;;-3.34;93.51;99986.23;111248;1268;22160;-85
2023/12/06 02:10:48;;;;;;;105.10;41.30;;;;;;;-3.32;93.54;99985.30;111474;1266;22174;-85
2023/12/06 02:14:01;;;;;;;103.30;45.10;;;;;;;-3.27;93.87;99990.14;111512;1266;22408;-85
2023/12/06 02:17:34;;;;;;;99.30;39.70;;;;;;;-3.21;93.86;99991.37;111425;1266;22134;-85
2023/12/06 02:20:48;;;;;;;96.80;40.60;;;;;;;-3.21;93.51;99988.63;111449;1266;22423;-85
2023/12/06 02:24:21;;;;;;;92.80;37.50;;;;;;;-3.20;93.64;99988.33;111490;1268;22356;-85
2023/12/06 02:28:14;;;;;;;90.70;37.00;;;;;;;-3.18;93.75;99983.55;111462;1260;22301;-84
2023/12/06 02:31:46;;;;;;;85.90;37.80;;;;;;;-3.16;93.95;99984.89;111462;1268;22428;-85
2023/12/06 02:35:22;;;;;;;91.40;39.90;;;;;;;-3.17;94.05;99984.11;111491;1267;22129;-85
2023/12/06 02:39:36;;;;;;;93.50;37.10;;;;;;;-3.17;94.09;99986.60;111445;1265;22106;-85
2023/12/06 02:42:49;;;;;;;90.70;37.10;;;;;;;-3.15;94.44;99986.77;111469;1264;22145;-84
2023/12/06 02:46:20;;;;;;;78.90;35.70;;;;;;;-3.14;94.55;99977.85;111444;1260;22382;-86
2023/12/06 02:49:52;;;;;;;76.90;35.90;;;;;;;-3.10;94.79;99970.13;111420;1268;22131;-85
2023/12/06 02:53:24;;;;;;;89.40;42.00;;;;;;;-3.05;94.95;99970.89;111490;1264;22156;-85
2023/12/06 02:57:16;;;;;;;100.30;43.50;;;;;;;-3.04;94.93;99969.81;111497;1266;22188;-85
2023/12/06 03:00:48;;;;;;;100.30;39.10;;;;;;;-3.03;94.82;99965.27;111496;1268;22161;-85
2023/12/06 03:03:39;;;;;;;97.30;41.10;;;;;;;-3.04;94.95;99961.84;111282;1268;22208;-83
2023/12/06 03:07:12;;;;;;;87.60;36.90;;;;;;;-3.03;94.84;99963.64;111457;1268;22168;-84
2023/12/06 03:10:43;;;;;;;91.10;38.80;;;;;;;-3.01;95.00;99964.80;111472;1266;22999;-84
2023/12/06 03:14:34;;;;;;;90.30;38.50;;;;;;;-2.97;94.98;99969.16;111466;1266;22129;-83
2023/12/06 03:18:07;;;;;;;90.80;39.20;;;;;;;-2.96;95.01;99969.86;111485;1268;22174;-84
2023/12/06 03:21:39;;;;;;;103.30;42.50;;;;;;;-2.98;94.88;99968.38;111476;1263;22157;-83
2023/12/06 03:25:30;;;;;;;89.20;39.10;;;;;;;-2.96;95.21;99967.89;111404;1268;22189;-83
2023/12/06 03:29:01;;;;;;;81.90;35.10;;;;;;;-2.94;95.32;99970.40;111493;1265;22123;-83
2023/12/06 03:32:33;;;;;;;92.90;39.80;;;;;;;-2.95;95.19;99966.11;111467;1266;22119;-83
2023/12/06 03:36:06;;;;;;;86.10;38.50;;;;;;;-2.95;95.34;99963.52;111436;1266;23540;-85
2023/12/06 03:39:17;;;;;;;87.40;38.10;;;;;;;-2.95;95.36;99964.70;111475;1260;22192;-84
2023/12/06 03:42:49;;;;;;;88.70;38.50;;;;;;;-2.93;95.63;99961.73;111455;1266;22334;-82
2023/12/06 03:46:42;;;;;;;86.80;36.10;;;;;;;-2.92;95.32;99965.40;111483;1267;22154;-84
2023/12/06 03:50:34;;;;;;;85.60;37.80;;;;;;;-2.92;95.43;99960.73;111337;1268;22185;-83
2023/12/06 03:54:26;;;;;;;88.10;39.10;;;;;;;-2.91;95.50;99962.42;111452;1268;22897;-85
2023/12/06 03:57:17;;;;;;;81.00;37.30;;;;;;;-2.90;95.67;99964.23;111465;1266;22417;-85
2023/12/06 04:00:31;;;;;;;92.80;40.00;;;;;;;-2.86;95.81;99958.73;111482;1268;22120;-84
2023/12/06 04:04:02;;;;;;;83.80;37.70;;;;;;;-2.84;95.72;99962.80;111485;1268;22151;-84
2023/12/06 04:07:54;;;;;;;94.20;38.30;;;;;;;-2.83;95.74;99964.42;111519;1268;22177;-85
2023/12/06 04:11:08;;;;;;;93.70;39.90;;;;;;;-2.81;95.70;99964.66;111473;1268;22134;-84
2023/12/06 04:15:00;;;;;;;96.40;38.70;;;;;;;-2.79;95.91;99961.54;111463;1265;22127;-84
2023/12/06 04:17:52;;;;;;;93.50;41.40;;;;;;;-2.78;96.05;99966.90;111480;1268;22210;-83
2023/12/06 04:21:24;;;;;;;85.50;38.50;;;;;;;-2.75;96.36;99964.79;111460;1268;23014;-83
2023/12/06 04:24:55;;;;;;;87.90;37.90;;;;;;;-2.68;96.80;99968.66;111480;1268;22100;-85
2023/12/06 04:28:07;;;;;;;90.00;39.10;;;;;;;-2.64;96.67;99967.86;111520;1268;22388;-85
2023/12/06 04:32:19;;;;;;;90.40;37.00;;;;;;;-2.61;96.57;99965.12;111431;1264;22088;-83
2023/12/06 04:35:50;;;;;;;87.90;37.10;;;;;;;-2.61;96.45;99962.30;111509;1261;22245;-84
2023/12/06 04:39:43;;;;;;;89.20;39.00;;;;;;;-2.60;96.31;99965.04;111479;1256;22107;-85
2023/12/06 04:43:15;;;;;;;82.80;36.00;;;;;;;-2.59;96.47;99962.86;111621;1261;22475;-84
2023/12/06 04:47:07;;;;;;;86.60;37.80;;;;;;;-2.60;96.36;99967.85;111500;1263;22441;-83
2023/12/06 04:49:58;;;;;;;87.80;39.80;;;;;;;-2.59;96.32;99971.58;111512;1266;23182;-84
2023/12/06 04:53:10;;;;;;;87.30;38.20;;;;;;;-2.59;96.25;99975.11;111474;1268;22963;-83
2023/12/06 04:57:03;;;;;;;93.90;40.60;;;;;;;-2.59;96.30;99980.89;111450;1266;22100;-83
2023/12/06 05:01:17;;;;;;;95.80;39.60;;;;;;;-2.61;96.26;99980.19;111469;1268;22136;-84
2023/12/06 05:04:10;;;;;;;92.60;38.00;;;;;;;-2.59;96.45;99982.30;111532;1266;23299;-84
2023/12/06 05:07:41;;;;;;;104.20;42.60;;;;;;;-2.55;97.01;99979.94;111541;1260;23216;-84
2023/12/06 05:10:53;;;;;;;89.70;40.00;;;;;;;-2.51;96.92;99979.45;111515;1260;22174;-83
2023/12/06 05:14:04;;;;;;;85.40;37.10;;;;;;;-2.50;96.69;99977.48;110827;1270;22503;-83
2023/12/06 05:16:56;;;;;;;89.90;39.10;;;;;;;-2.50;96.52;99982.80;110699;1274;22346;-86
2023/12/06 05:19:47;;;;;;;94.30;40.50;;;;;;;-2.49;96.42;99987.09;110706;1266;22160;-85
2023/12/06 05:22:58;;;;;;;87.20;37.80;;;;;;;-2.48;96.49;99988.02;110725;1272;22156;-85
2023/12/06 05:27:50;;;;;;;94.30;39.30;;;;;;;-2.48;96.67;99990.20;110712;1274;22138;-84
2023/12/06 05:31:43;;;;;;;86.60;39.70;;;;;;;-2.49;96.45;99995.06;110624;1275;22133;-81
2023/12/06 05:35:52;;;;;;;91.90;38.60;;;;;;;-2.51;96.49;100001.63;110698;1272;22091;-81
2023/12/06 05:39:26;;;;;;;89.10;38.70;;;;;;;-2.51;96.43;100003.34;110687;1275;23151;-82
2023/12/06 05:42:59;;;;;;;101.20;42.10;;;;;;;-2.50;96.32;100011.23;110703;1274;22105;-81
2023/12/06 05:47:15;;;;;;;92.90;39.90;;;;;;;-2.50;96.44;100007.48;110666;1273;22205;-81
2023/12/06 05:51:13;;;;;;;91.70;40.30;;;;;;;-2.48;96.36;100008.71;110705;1274;22177;-83
2023/12/06 05:55:25;;;;;;;88.30;36.80;;;;;;;-2.46;96.21;100009.49;110649;1275;22160;-82
2023/12/06 05:59:37;;;;;;;91.20;39.60;;;;;;;-2.48;96.30;100010.13;110649;1275;22156;-82
2023/12/06 06:03:28;;;;;;;97.80;42.10;;;;;;;-2.44;96.45;100011.98;110636;1272;22321;-82
2023/12/06 06:07:28;;;;;;;95.80;39.90;;;;;;;-2.44;96.33;100014.55;110716;1274;22097;-86
2023/12/06 06:11:39;;;;;;;91.00;39.90;;;;;;;-2.46;96.29;100012.77;110658;1272;22115;-84
2023/12/06 06:14:39;;;;;;;93.80;40.40;;;;;;;-2.46;96.23;100013.48;110687;1268;22356;-81
2023/12/06 06:17:56;;;;;;;92.40;40.60;;;;;;;-2.48;96.18;100009.96;110718;1274;22227;-81
2023/12/06 06:21:54;;;;;;;97.50;41.10;;;;;;;-2.49;96.17;100014.81;110708;1274;22178;-82
2023/12/06 06:25:45;;;;;;;93.20;39.20;;;;;;;-2.50;96.19;100012.23;110653;1267;23162;-86
2023/12/06 06:29:57;;;;;;;93.90;40.90;;;;;;;-2.50;96.27;100008.41;110656;1275;22952;-85
2023/12/06 06:38:05;;;;;;;147.00;54.60;;;;;;;-2.49;96.21;100013.25;106809;1309;543525;-91
2023/12/06 06:42:09;;;;;;;169.30;62.30;;;;;;;-2.54;96.10;100015.77;109975;1279;23489;-91
2023/12/06 06:45:31;;;;;;;164.40;58.90;;;;;;;-2.53;96.17;100013.98;109897;1273;25490;-86
2023/12/06 06:52:54;;;;;;;179.40;86.00;;;;;;;-2.53;96.12;100024.44;101440;1273;10135564;-92
2023/12/06 06:55:55;;;;;;;211.90;108.70;;;;;;;-2.52;96.10;100025.29;109002;1276;22565;-90
2023/12/06 06:59:44;;;;;;;198.60;101.60;;;;;;;-2.50;96.15;100023.10;109803;1275;22591;-91
2023/12/06 07:03:23;;;;;;;173.20;82.10;;;;;;;-2.43;96.35;100025.34;107051;1299;542978;-90
2023/12/06 07:06:24;;;;;;;232.60;104.70;;;;;;;-2.43;96.24;100032.13;109679;1272;23339;-89
2023/12/06 07:09:36;;;;;;;211.20;95.80;;;;;;;-2.43;96.32;100037.04;109622;1275;22554;-91
2023/12/06 07:12:29;;;;;;;170.50;78.10;;;;;;;-2.42;96.34;100035.24;109477;1273;25513;-91
2023/12/06 07:15:32;;;;;;;142.70;67.00;;;;;;;-2.39;96.52;100034.77;109757;1275;22481;-89
2023/12/06 07:18:34;;;;;;;114.90;56.00;;;;;;;-2.38;96.44;100032.64;109324;1272;22740;-89
2023/12/06 07:21:53;;;;;;;112.60;55.90;;;;;;;-2.37;96.38;100044.14;109598;1273;22535;-89
2023/12/06 07:24:46;;;;;;;118.10;58.70;;;;;;;-2.36;96.52;100040.86;109528;1272;24404;-91
2023/12/06 07:27:38;;;;;;;208.40;94.90;;;;;;;-2.34;96.51;100039.98;109786;1272;22522;-90
2023/12/06 07:30:38;;;;;;;301.20;153.20;;;;;;;-2.32;96.54;100047.00;109685;1272;23915;-90
2023/12/06 07:33:51;;;;;;;304.20;164.60;;;;;;;-2.30;96.60;100045.27;109546;1272;23889;-89
2023/12/06 07:37:21;;;;;;;179.40;89.30;;;;;;;-2.28;96.56;100043.70;110202;1272;22537;-91
2023/12/06 07:40:48;;;;;;;128.60;64.20;;;;;;;-2.25;96.81;100042.67;110513;1272;23398;-91
2023/12/06 07:44:29;;;;;;;116.60;57.30;;;;;;;-2.23;96.86;100045.79;110602;1272;22623;-92
2023/12/06 07:47:24;;;;;;;117.20;59.20;;;;;;;-2.20;97.01;100045.70;110210;1272;26058;-91
2023/12/06 07:50:19;;;;;;;119.20;54.70;;;;;;;-2.16;96.99;100047.09;110375;1271;23300;-92
2023/12/06 07:53:31;;;;;;;116.80;54.60;;;;;;;-2.14;96.89;100047.08;110359;1270;22558;-91
2023/12/06 07:56:31;;;;;;;121.90;54.90;;;;;;;-2.12;96.86;100046.76;110482;1271;23566;-91
2023/12/06 07:59:28;;;;;;;122.30;57.30;;;;;;;-2.10;97.00;100045.81;110384;1266;22638;-92
2023/12/06 08:02:26;;;;;;;125.70;58.50;;;;;;;-2.06;97.20;100042.58;110171;1273;22553;-92
2023/12/06 08:05:42;;;;;;;122.10;56.60;;;;;;;-2.03;97.08;100047.00;110227;1273;22726;-91
2023/12/06 08:08:37;;;;;;;129.80;59.90;;;;;;;-2.01;97.01;100049.36;110301;1273;23296;-92
2023/12/06 08:12:16;;;;;;;128.30;59.40;;;;;;;-1.98;96.98;100051.05;111007;1273;22125;-92
2023/12/06 08:15:32;;;;;;;133.70;60.50;;;;;;;-1.94;97.21;100048.85;111067;1273;22116;-90
2023/12/06 08:18:32;;;;;;;130.60;57.90;;;;;;;-1.92;97.09;100047.98;110989;1273;22169;-91
2023/12/06 08:21:46;;;;;;;132.20;58.20;;;;;;;-1.90;97.32;100046.71;110969;1273;22092;-90
2023/12/06 08:24:38;;;;;;;112.50;51.10;;;;;;;-1.87;97.27;100044.98;111074;1270;22117;-89
2023/12/06 08:27:33;;;;;;;132.50;55.90;;;;;;;-1.85;97.32;100045.12;111268;1270;22033;-90
2023/12/06 08:30:25;;;;;;;115.90;54.60;;;;;;;-1.80;97.45;100048.61;111176;1270;22120;-91
2023/12/06 08:33:18;;;;;;;113.60;55.50;;;;;;;-1.75;97.22;100048.02;111139;1270;22236;-90
2023/12/06 08:36:11;;;;;;;123.20;55.20;;;;;;;-1.73;97.43;100044.73;111201;1270;22900;-90
2023/12/06 08:39:03;;;;;;;125.60;59.30;;;;;;;-1.68;97.62;100041.56;111273;1265;22120;-90
2023/12/06 08:41:56;;;;;;;97.30;47.90;;;;;;;-1.62;97.40;100042.95;111307;1270;22705;-90
2023/12/06 08:45:00;;;;;;;103.90;45.80;;;;;;;-1.61;97.15;100044.41;111299;1267;22534;-89
2023/12/06 08:47:54;;;;;;;139.00;64.60;;;;;;;-1.59;97.34;100044.79;111187;1270;22826;-92
2023/12/06 08:50:47;;;;;;;269.90;117.10;;;;;;;-1.53;97.52;100045.06;111300;1270;22112;-91
2023/12/06 08:53:38;;;;;;;309.30;123.50;;;;;;;-1.46;97.44;100041.42;111254;1266;22100;-93
2023/12/06 08:56:34;;;;;;;370.60;137.30;;;;;;;-1.40;97.49;100044.80;111104;1270;22838;-90
2023/12/06 09:00:22;;;;;;;199.10;79.20;;;;;;;-1.31;97.62;100044.03;111349;1270;22148;-90
2023/12/06 09:04:02;;;;;;;175.90;69.50;;;;;;;-1.25;97.42;100042.48;110746;1277;22169;-93
2023/12/06 09:07:11;;;;;;;132.60;54.00;;;;;;;-1.17;97.55;100046.96;110739;1277;22114;-90
2023/12/06 09:10:05;;;;;;;134.70;57.30;;;;;;;-1.13;97.46;100045.36;110661;1272;22171;-90
2023/12/06 09:13:19;;;;;;;123.10;56.10;;;;;;;-1.06;97.78;100043.11;110763;1276;22058;-91
2023/12/06 09:17:11;;;;;;;115.30;50.50;;;;;;;-1.00;97.63;100045.23;110066;1289;22096;-93
2023/12/06 09:22:23;;;;;;;104.20;48.40;;;;;;;-0.92;97.45;100046.95;106904;1310;543233;-92
2023/12/06 09:25:39;;;;;;;119.80;52.30;;;;;;;-0.87;97.49;100043.88;109547;1278;24467;-89
2023/12/06 09:28:51;;;;;;;103.00;46.70;;;;;;;-0.84;97.21;100044.22;109825;1273;22521;-91
2023/12/06 09:32:13;;;;;;;101.20;44.20;;;;;;;-0.80;97.16;100049.83;109816;1274;24410;-91
2023/12/06 09:35:47;;;;;;;106.10;46.00;;;;;;;-0.74;97.49;100050.00;109833;1271;729197;-92
2023/12/06 09:39:40;;;;;;;106.70;46.50;;;;;;;-0.68;97.23;100058.25;110367;1271;24224;-92
2023/12/06 09:43:28;;;;;;;102.00;46.90;;;;;;;-0.62;97.61;100053.16;110546;1271;22967;-92
2023/12/06 09:48:00;;;;;;;117.80;52.30;;;;;;;-0.54;97.30;100050.02;110664;1271;22913;-92
2023/12/06 10:04:38;;;;;;;135.10;57.60;;;;;;;-0.24;97.19;100044.64;110550;1268;22234;-92
2023/12/06 10:14:02;;;;;;;121.10;49.80;;;;;;;-0.12;97.27;100032.50;110449;1273;22661;-93
2023/12/06 10:29:14;;;;;;;119.50;53.80;;;;;;;0.11;97.16;100028.83;110301;1274;22539;-94
2023/12/06 10:33:22;;;;;;;112.80;47.60;;;;;;;0.16;97.21;100025.92;110170;1271;22700;-92
2023/12/06 10:41:55;;;;;;;95.40;42.20;;;;;;;0.32;97.30;100020.99;110287;1272;22543;-95
2023/12/06 10:46:11;;;;;;;89.10;39.40;;;;;;;0.39;96.98;100021.83;110048;1281;22555;-92
2023/12/06 10:50:29;;;;;;;87.00;37.50;;;;;;;0.47;97.28;100020.36;109808;1279;25448;-93
2023/12/06 10:54:07;;;;;;;81.50;35.90;;;;;;;0.53;97.08;100016.81;109882;1281;22792;-92
2023/12/06 10:58:21;;;;;;;75.30;31.50;;;;;;;0.57;97.07;100019.42;109877;1282;22573;-91
2023/12/06 11:02:26;;;;;;;81.90;36.00;;;;;;;0.61;96.76;100016.45;109581;1281;22541;-93
2023/12/06 11:05:50;;;;;;;79.00;35.40;;;;;;;0.62;96.82;100017.30;109460;1282;22979;-92
2023/12/06 11:09:29;;;;;;;95.50;45.30;;;;;;;0.62;96.64;100014.72;109384;1282;23810;-92
2023/12/06 11:12:32;;;;;;;86.10;40.50;;;;;;;0.62;96.40;100013.85;109397;1281;22636;-92
2023/12/06 11:15:42;;;;;;;86.70;39.60;;;;;;;0.59;96.35;100017.42;110216;1281;22585;-92
2023/12/06 11:19:17;;;;;;;91.40;40.20;;;;;;;0.59;96.66;100017.17;110332;1282;22977;-92
2023/12/06 11:22:54;;;;;;;82.70;39.00;;;;;;;0.62;96.70;100009.77;110350;1281;22097;-93
2023/12/06 11:26:06;;;;;;;75.90;35.10;;;;;;;0.62;96.75;100013.20;110156;1285;22231;-92
2023/12/06 11:29:31;;;;;;;82.20;37.40;;;;;;;0.65;96.76;100011.92;110127;1285;22073;-93
2023/12/06 11:32:48;;;;;;;87.40;37.80;;;;;;;0.67;96.71;100010.77;110145;1285;22149;-93
2023/12/06 11:36:17;;;;;;;81.10;34.70;;;;;;;0.70;96.84;100010.02;110158;1285;22835;-91
2023/12/06 11:39:33;;;;;;;75.20;33.70;;;;;;;0.71;96.50;100010.62;110123;1285;22158;-93
2023/12/06 11:42:55;;;;;;;88.50;38.40;;;;;;;0.72;96.69;100010.46;110126;1285;22311;-92
2023/12/06 11:45:50;;;;;;;94.90;39.10;;;;;;;0.73;96.58;100011.85;110087;1286;22849;-91
2023/12/06 11:48:44;;;;;;;105.50;46.30;;;;;;;0.74;96.66;100014.83;110055;1286;22152;-92
2023/12/06 11:51:36;;;;;;;89.30;39.70;;;;;;;0.76;96.90;100015.34;109996;1281;22159;-90
2023/12/06 11:54:28;;;;;;;93.60;40.70;;;;;;;0.80;96.79;100019.73;110063;1285;22131;-91
2023/12/06 11:57:19;;;;;;;85.60;35.60;;;;;;;0.83;96.78;100021.19;110063;1285;22169;-90
2023/12/06 12:00:13;;;;;;;86.70;40.70;;;;;;;0.84;96.84;100021.48;110035;1285;22779;-90
2023/12/06 12:03:05;;;;;;;86.00;39.80;;;;;;;0.87;96.90;100021.67;110049;1285;22159;-90
2023/12/06 12:05:57;;;;;;;94.50;42.30;;;;;;;0.89;96.83;100022.89;110001;1282;22161;-89
2023/12/06 12:08:49;;;;;;;85.50;41.70;;;;;;;0.92;97.02;100022.20;109915;1279;22898;-89
2023/12/06 12:11:43;;;;;;;94.10;44.40;;;;;;;0.97;96.90;100027.31;109941;1285;22110;-90
2023/12/06 12:14:37;;;;;;;90.60;40.00;;;;;;;1.01;96.86;100024.73;109985;1285;22168;-89
2023/12/06 12:17:29;;;;;;;92.00;42.80;;;;;;;1.04;97.11;100028.29;109913;1276;22886;-88
2023/12/06 12:20:20;;;;;;;90.80;42.20;;;;;;;1.06;96.84;100025.41;109899;1283;23152;-89
2023/12/06 12:23:13;;;;;;;95.20;45.00;;;;;;;1.04;96.72;100019.23;109878;1280;22334;-89
2023/12/06 12:44:18;;;;;;;93.20;48.40;;;;;;;1.55;96.16;100020.47;105895;1294;555794;-89
2023/12/06 12:47:15;;;;;;;86.10;43.00;;;;;;;1.61;95.89;100017.98;106356;1278;2271713;-89
2023/12/06 12:50:12;;;;;;;84.70;41.20;;;;;;;1.60;96.09;100013.15;107858;1276;25278;-90
2023/12/06 12:53:05;;;;;;;80.00;39.90;;;;;;;1.58;96.17;100013.59;107788;1281;22537;-88
2023/12/06 12:56:21;;;;;;;79.30;37.30;;;;;;;1.54;96.14;100013.66;108190;1272;25339;-91
2023/12/06 12:59:37;;;;;;;86.70;39.40;;;;;;;1.51;96.25;100016.56;108823;1268;23081;-90
2023/12/06 13:02:38;;;;;;;84.80;38.20;;;;;;;1.48;96.47;100022.65;109272;1268;25345;-93
2023/12/06 13:05:58;;;;;;;90.70;41.10;;;;;;;1.45;96.31;100020.05;109772;1263;22560;-92
2023/12/06 13:08:57;;;;;;;90.10;42.30;;;;;;;1.43;96.38;100022.14;109064;1263;22536;-90
2023/12/06 13:11:51;;;;;;;107.50;49.90;;;;;;;1.41;96.31;100025.92;108915;1262;22576;-90
2023/12/06 13:14:50;;;;;;;98.90;48.10;;;;;;;1.39;96.32;100028.24;109169;1269;23810;-90
2023/12/06 13:18:01;;;;;;;90.40;42.30;;;;;;;1.38;96.37;100028.83;109147;1265;22552;-91
2023/12/06 13:21:41;;;;;;;91.70;41.40;;;;;;;1.36;96.33;100028.46;109614;1269;22635;-92
2023/12/06 13:24:38;;;;;;;80.20;37.00;;;;;;;1.34;96.47;100033.30;109913;1265;22643;-91
2023/12/06 13:27:52;;;;;;;75.00;36.50;;;;;;;1.32;96.39;100036.48;109664;1269;25293;-91
2023/12/06 13:31:05;;;;;;;83.70;38.40;;;;;;;1.31;96.60;100037.84;109883;1266;22544;-91
2023/12/06 13:34:25;;;;;;;81.70;39.00;;;;;;;1.30;96.55;100035.05;109961;1269;24178;-90
2023/12/06 13:38:24;;;;;;;91.50;43.00;;;;;;;1.29;96.66;100035.35;110009;1269;22598;-93
2023/12/06 13:42:20;;;;;;;111.90;49.80;;;;;;;1.27;96.43;100034.61;110479;1269;22535;-95
2023/12/06 13:58:35;;;;;;;148.50;57.60;;;;;;;1.23;96.60;100047.58;110292;1274;22561;-93
2023/12/06 14:02:58;;;;;;;136.40;55.50;;;;;;;1.23;96.67;100051.09;110244;1274;22656;-94
2023/12/06 14:59:48;;;;;;;404.60;202.50;;;;;;;0.97;96.99;100076.38;108701;1272;22553;-83
2023/12/06 15:03:20;;;;;;;332.80;146.00;;;;;;;0.98;96.86;100080.38;110334;1271;23014;-85
2023/12/06 15:06:32;;;;;;;237.60;107.70;;;;;;;0.99;96.91;100083.66;110146;1277;23060;-85
2023/12/06 15:09:45;;;;;;;217.80;99.70;;;;;;;1.01;96.87;100083.00;110324;1278;22109;-85
2023/12/06 15:12:36;;;;;;;175.70;83.10;;;;;;;1.01;96.83;100087.40;110359;1278;22723;-82
2023/12/06 15:16:29;;;;;;;148.10;72.50;;;;;;;1.02;96.68;100088.88;110466;1278;22889;-85
2023/12/06 15:20:07;;;;;;;126.40;59.50;;;;;;;1.03;96.72;100096.31;110324;1272;22086;-85
2023/12/06 15:23:19;;;;;;;112.00;52.90;;;;;;;1.04;96.73;100101.16;110458;1278;22258;-86
2023/12/06 15:26:53;;;;;;;119.80;55.00;;;;;;;1.03;96.67;100101.27;110369;1272;22898;-83
2023/12/06 15:30:49;;;;;;;99.70;49.00;;;;;;;1.04;96.69;100103.13;110378;1271;22142;-85
2023/12/06 15:34:20;;;;;;;102.40;49.20;;;;;;;1.04;96.63;100103.52;110352;1278;23112;-85
2023/12/06 15:37:11;;;;;;;106.50;51.20;;;;;;;1.05;96.62;100105.70;110437;1272;22425;-85
2023/12/06 15:40:03;;;;;;;101.70;49.30;;;;;;;1.06;96.58;100102.23;110293;1278;22214;-85
2023/12/06 15:43:17;;;;;;;96.70;46.70;;;;;;;1.06;96.50;100099.88;110398;1278;22193;-85
2023/12/06 15:46:50;;;;;;;104.50;50.60;;;;;;;1.04;96.42;100098.42;110385;1275;22295;-85
2023/12/06 15:50:22;;;;;;;115.20;59.40;;;;;;;1.02;96.30;100104.42;110336;1278;22246;-84
2023/12/06 20:38:52;;;;;;;199.10;87.70;;;;;;;0.24;97.32;100290.23;105437;1302;543439;-83
2023/12/06 20:44:42;;;;;;;183.50;86.50;;;;;;;0.19;97.10;100293.42;109991;1278;22783;-84
2023/12/06 20:47:36;;;;;;;180.80;84.80;;;;;;;0.18;97.15;100295.86;110272;1272;22192;-84
2023/12/06 20:50:26;;;;;;;177.80;79.00;;;;;;;0.20;97.31;100298.76;110187;1269;22197;-82
2023/12/06 20:53:18;;;;;;;172.20;82.80;;;;;;;0.20;97.00;100306.60;110045;1267;258617;-84
2023/12/06 20:56:10;;;;;;;178.00;81.10;;;;;;;0.18;97.09;100308.97;109579;1263;23190;-85
2023/12/06 20:59:01;;;;;;;177.60;79.40;;;;;;;0.18;97.17;100309.44;109088;1267;24218;-84
2023/12/06 21:01:54;;;;;;;178.50;83.00;;;;;;;0.19;97.39;100300.41;109542;1266;22572;-85
2023/12/06 21:04:45;;;;;;;188.20;89.30;;;;;;;0.18;97.30;100299.71;109797;1265;22561;-85
2023/12/06 21:07:37;;;;;;;171.70;80.40;;;;;;;0.18;97.28;100302.45;109754;1266;22562;-87
2023/12/06 21:10:29;;;;;;;176.90;85.90;;;;;;;0.16;97.17;100300.83;108923;1263;22636;-88
2023/12/06 21:13:20;;;;;;;167.20;79.30;;;;;;;0.14;97.11;100303.59;109265;1271;22553;-86
2023/12/06 21:16:11;;;;;;;155.30;73.70;;;;;;;0.09;97.02;100310.22;109576;1263;22563;-87
2023/12/06 21:19:03;;;;;;;154.70;71.90;;;;;;;0.08;97.30;100312.35;109721;1266;22519;-86
2023/12/06 21:21:55;;;;;;;145.90;70.70;;;;;;;0.09;97.21;100313.20;108738;1263;22581;-85
2023/12/06 21:24:53;;;;;;;153.50;71.20;;;;;;;0.09;97.08;100313.52;108720;1266;22785;-86
2023/12/06 21:27:45;;;;;;;143.10;69.70;;;;;;;0.07;97.08;100316.52;108285;1260;22520;-86
2023/12/06 21:30:37;;;;;;;175.40;74.40;;;;;;;0.07;97.08;100312.21;108073;1267;25319;-86
2023/12/06 21:33:29;;;;;;;149.60;68.50;;;;;;;0.04;97.18;100313.17;109763;1269;22552;-86
2023/12/06 21:36:21;;;;;;;146.80;68.30;;;;;;;0.04;97.37;100317.27;109642;1271;22572;-86
2023/12/06 21:39:13;;;;;;;159.50;68.70;;;;;;;0.01;97.21;100318.30;108546;1266;22562;-85
2023/12/06 21:42:05;;;;;;;148.20;68.80;;;;;;;0.01;97.55;100320.81;109185;1269;22539;-85
2023/12/06 21:44:56;;;;;;;157.00;70.40;;;;;;;0.02;97.56;100319.80;109051;1264;23179;-86
2023/12/06 21:47:47;;;;;;;184.80;81.20;;;;;;;0.03;97.65;100320.71;109328;1265;23207;-86
2023/12/06 21:50:39;;;;;;;173.50;79.10;;;;;;;0.01;97.27;100326.86;109706;1264;22626;-86
2023/12/06 21:53:30;;;;;;;163.50;75.90;;;;;;;-0.01;97.33;100331.33;109306;1266;22578;-85
2023/12/06 21:56:24;;;;;;;187.20;82.00;;;;;;;-0.03;97.04;100336.29;108136;1266;22772;-87
2023/12/06 21:59:16;;;;;;;179.90;85.00;;;;;;;-0.03;97.25;100332.37;107966;1271;22542;-85
2023/12/06 22:02:08;;;;;;;183.20;82.60;;;;;;;-0.03;97.32;100339.42;109778;1270;22550;-85
2023/12/06 22:05:01;;;;;;;176.40;75.10;;;;;;;-0.05;97.24;100340.77;109733;1259;22551;-85